Time;durP1;ratioP1;P1;durP2;ratioP2;P2;SDS_P1;SDS_P2;PMS_P1;PMS_P2;Temp;Humidity;BMP_temperature;BMP_pressure;BME280_temperature;BME280_humidity;BME280_pressure;Samples;Min_cycle;Max_cycle;Signal;HPM_P1;HPM_P2
2023/01/05 00:00:10;;;;;;;17.93;4.93;;;11.80;99.90;;;;;;4961447;28;20460;-84
2023/01/05 00:02:38;;;;;;;16.10;3.17;;;11.80;99.90;;;;;;4976445;28;20475;-83
2023/01/05 00:05:06;;;;;;;14.10;4.10;;;11.70;99.90;;;;;;4959960;28;20471;-84
2023/01/05 00:07:32;;;;;;;23.90;3.73;;;11.80;99.90;;;;;;4976554;28;20950;-85
2023/01/05 00:09:59;;;;;;;12.90;2.00;;;11.70;99.90;;;;;;4977850;28;20455;-84
2023/01/05 00:23:24;;;;;;;18.17;3.57;;;11.70;99.90;;;;;;4964614;29;20480;-84
2023/01/05 00:25:51;;;;;;;10.80;2.83;;;11.70;99.90;;;;;;4964083;28;20548;-84
2023/01/05 00:28:18;;;;;;;14.60;3.63;;;11.70;99.90;;;;;;4964870;28;20455;-83
2023/01/05 00:30:46;;;;;;;15.37;4.30;;;11.70;99.90;;;;;;4964329;28;20456;-84
2023/01/05 00:33:16;;;;;;;11.70;3.00;;;11.70;99.90;;;;;;4964815;28;20559;-83
2023/01/05 00:35:43;;;;;;;23.40;3.07;;;11.60;99.90;;;;;;4982155;28;20477;-83
2023/01/05 00:38:10;;;;;;;19.13;3.17;;;11.60;99.90;;;;;;4983404;28;20835;-84
2023/01/05 00:40:37;;;;;;;11.50;3.10;;;11.60;99.90;;;;;;4966225;28;20456;-84
2023/01/05 00:43:04;;;;;;;19.03;4.00;;;11.60;99.90;;;;;;4964337;28;20486;-83
2023/01/05 00:45:31;;;;;;;15.30;4.23;;;11.60;99.90;;;;;;4978797;28;20482;-84
2023/01/05 00:47:58;;;;;;;13.30;3.80;;;11.60;99.90;;;;;;4982948;28;20451;-84
2023/01/05 00:50:26;;;;;;;19.97;3.97;;;11.60;99.90;;;;;;4983266;28;20457;-84
2023/01/05 00:52:53;;;;;;;17.90;3.87;;;11.60;99.90;;;;;;4982631;28;20454;-84
2023/01/05 00:55:20;;;;;;;20.30;4.17;;;11.50;99.90;;;;;;4982296;28;20474;-83
2023/01/05 00:57:46;;;;;;;12.60;3.40;;;11.50;99.90;;;;;;4982813;28;20455;-83
2023/01/05 01:00:16;;;;;;;15.17;2.97;;;11.60;99.90;;;;;;4982246;28;20570;-84
2023/01/05 01:02:43;;;;;;;15.70;3.90;;;11.50;99.90;;;;;;4983366;28;20555;-85
2023/01/05 01:05:10;;;;;;;18.20;3.27;;;11.50;99.90;;;;;;4966314;28;20558;-84
2023/01/05 01:07:38;;;;;;;16.93;4.80;;;11.50;99.90;;;;;;4982228;28;20454;-84
2023/01/05 01:10:06;;;;;;;13.57;3.63;;;11.50;99.90;;;;;;4965318;28;20458;-83
2023/01/05 01:12:33;;;;;;;19.40;3.87;;;11.50;99.90;;;;;;4963401;28;20462;-83
2023/01/05 01:15:00;;;;;;;20.37;3.20;;;11.40;99.90;;;;;;4963518;28;20480;-83
2023/01/05 01:17:26;;;;;;;16.77;3.50;;;11.40;99.90;;;;;;4964520;28;20459;-84
2023/01/05 01:19:53;;;;;;;16.23;3.63;;;11.40;99.90;;;;;;4981862;28;20466;-83
2023/01/05 01:22:20;;;;;;;12.30;3.37;;;11.40;99.90;;;;;;4982483;28;20483;-84
2023/01/05 01:24:48;;;;;;;21.30;3.57;;;11.40;99.90;;;;;;4982326;28;21060;-83
2023/01/05 01:27:15;;;;;;;19.57;3.70;;;11.40;99.90;;;;;;4981622;28;20454;-83
2023/01/05 01:29:41;;;;;;;15.50;3.80;;;11.30;99.90;;;;;;4963537;28;20447;-84
2023/01/05 01:32:08;;;;;;;13.07;3.60;;;11.40;99.90;;;;;;4963778;28;20452;-84
2023/01/05 01:34:35;;;;;;;22.33;4.07;;;11.30;99.90;;;;;;4979271;28;20485;-84
2023/01/05 01:37:02;;;;;;;11.60;3.70;;;11.30;99.90;;;;;;4982385;28;20451;-84
2023/01/05 01:39:29;;;;;;;20.57;4.47;;;11.30;99.90;;;;;;4967301;28;20464;-84
2023/01/05 01:41:57;;;;;;;19.20;4.63;;;11.30;99.90;;;;;;4962924;28;20459;-83
2023/01/05 01:44:54;;;;;;;24.33;5.50;;;11.20;99.90;;;;;;4976007;28;20455;-83
2023/01/05 01:47:28;;;;;;;25.20;4.60;;;11.20;99.90;;;;;;4977297;28;21033;-83
2023/01/05 01:49:57;;;;;;;16.33;4.60;;;11.20;99.90;;;;;;4962653;28;20999;-83
2023/01/05 01:52:26;;;;;;;13.90;4.30;;;11.20;99.90;;;;;;4966708;28;21008;-84
2023/01/05 01:54:53;;;;;;;11.77;4.40;;;11.20;99.90;;;;;;4982131;28;20830;-84
2023/01/05 01:57:23;;;;;;;15.07;3.60;;;11.20;99.90;;;;;;4979043;28;20451;-84
2023/01/05 01:59:51;;;;;;;16.83;4.73;;;11.20;99.90;;;;;;4972485;28;20460;-83
2023/01/05 02:02:18;;;;;;;14.07;3.70;;;11.20;99.90;;;;;;4962943;29;20842;-83
2023/01/05 02:04:46;;;;;;;25.20;4.90;;;11.20;99.90;;;;;;4962436;28;20476;-85
2023/01/05 02:07:14;;;;;;;20.47;6.83;;;11.10;99.90;;;;;;4962146;28;20456;-82
2023/01/05 02:09:41;;;;;;;16.33;6.50;;;11.10;99.90;;;;;;4962882;28;20467;-84
2023/01/05 02:12:18;;;;;;;19.93;6.90;;;11.10;99.90;;;;;;4946728;28;20456;-84
2023/01/05 02:14:53;;;;;;;12.40;4.60;;;11.20;99.90;;;;;;4962158;28;20482;-83
2023/01/05 02:17:42;;;;;;;15.63;5.13;;;11.00;99.90;;;;;;4942963;29;20456;-84
2023/01/05 02:20:44;;;;;;;24.40;5.67;;;11.00;99.90;;;;;;4946020;28;20457;-84
2023/01/05 02:23:46;;;;;;;30.10;8.73;;;11.00;99.90;;;;;;4962078;28;20483;-83
2023/01/05 02:26:45;;;;;;;15.53;5.73;;;11.00;99.90;;;;;;4979081;28;20474;-84
2023/01/05 02:29:41;;;;;;;19.63;5.90;;;11.00;99.90;;;;;;4979896;28;20450;-83
2023/01/05 02:32:14;;;;;;;19.80;5.40;;;10.90;99.90;;;;;;4961974;28;20444;-84
2023/01/05 02:34:47;;;;;;;17.27;6.27;;;10.90;99.90;;;;;;4961310;28;21014;-83
2023/01/05 02:37:18;;;;;;;23.80;6.30;;;10.80;99.90;;;;;;4964754;28;20453;-84
2023/01/05 02:39:52;;;;;;;17.73;6.07;;;10.90;99.90;;;;;;4980591;28;20467;-84
2023/01/05 02:42:22;;;;;;;9.77;5.00;;;10.90;99.90;;;;;;4980269;28;20466;-84
2023/01/05 02:44:49;;;;;;;20.23;5.33;;;11.00;99.90;;;;;;4978096;28;20471;-84
2023/01/05 02:47:41;;;;;;;17.03;5.30;;;11.00;99.90;;;;;;4980901;28;20466;-84
2023/01/05 02:50:14;;;;;;;19.33;4.77;;;11.10;99.90;;;;;;4970237;28;20462;-83
2023/01/05 02:52:46;;;;;;;15.80;5.27;;;11.00;99.90;;;;;;4961751;28;20456;-84
2023/01/05 02:55:17;;;;;;;18.87;5.60;;;11.10;99.90;;;;;;4971900;28;20580;-84
2023/01/05 02:57:50;;;;;;;18.03;5.90;;;11.10;99.90;;;;;;4974088;28;20452;-83
2023/01/05 03:00:22;;;;;;;27.80;6.87;;;11.00;99.90;;;;;;4961361;28;20463;-84
2023/01/05 03:02:54;;;;;;;14.13;4.50;;;11.00;99.90;;;;;;4967494;28;20474;-82
2023/01/05 03:05:25;;;;;;;16.87;5.47;;;11.00;99.90;;;;;;4980239;28;20482;-84
2023/01/05 03:08:05;;;;;;;15.97;4.33;;;11.00;99.90;;;;;;4974244;28;20459;-84
2023/01/05 03:16:07;;;;;;;26.83;5.07;;;11.00;99.90;;;;;;4960794;29;20463;-84
2023/01/05 03:19:34;;;;;;;26.03;5.37;;;11.10;99.90;;;;;;4970820;28;20817;-84
2023/01/05 03:21:25;;;;;;;19.53;5.80;;;11.00;99.90;;;;;;4972730;28;20484;-84
2023/01/05 03:37:53;;;;;;;26.33;7.60;;;10.70;99.90;;;;;;4965828;28;20454;-84
2023/01/05 03:40:24;;;;;;;23.00;8.67;;;10.60;99.90;;;;;;4964559;28;20455;-84
2023/01/05 03:42:51;;;;;;;23.30;8.80;;;10.60;99.90;;;;;;4975466;28;20467;-84
2023/01/05 03:45:19;;;;;;;23.53;8.80;;;10.60;99.90;;;;;;4972901;28;20847;-84
2023/01/05 03:47:46;;;;;;;9.20;6.07;;;10.70;99.90;;;;;;4963976;28;20467;-84
2023/01/05 03:50:14;;;;;;;15.80;10.67;;;10.80;99.90;;;;;;4965011;28;20452;-84
2023/01/05 03:52:41;;;;;;;16.50;8.80;;;10.80;99.90;;;;;;4966653;28;20459;-84
2023/01/05 03:55:09;;;;;;;14.33;7.70;;;10.80;99.90;;;;;;4965840;28;20475;-84
2023/01/05 03:57:36;;;;;;;22.73;6.13;;;10.90;99.90;;;;;;4966352;28;20462;-85
2023/01/05 04:00:04;;;;;;;14.93;6.30;;;10.90;99.90;;;;;;4965647;28;20459;-84
2023/01/05 04:02:31;;;;;;;21.70;6.57;;;10.90;99.90;;;;;;4965336;28;20964;-85
2023/01/05 04:04:58;;;;;;;18.47;5.03;;;10.90;99.90;;;;;;4964837;28;20482;-86
2023/01/05 04:07:26;;;;;;;12.53;7.13;;;10.90;99.90;;;;;;4964917;28;20464;-84
2023/01/05 04:09:53;;;;;;;22.90;9.20;;;10.80;99.90;;;;;;4964448;28;20467;-83
2023/01/05 04:12:19;;;;;;;14.53;8.50;;;10.70;99.90;;;;;;4964735;28;20462;-83
2023/01/05 04:14:46;;;;;;;19.30;13.50;;;10.60;99.90;;;;;;4964329;28;20862;-82
2023/01/05 04:17:13;;;;;;;23.90;13.43;;;10.50;99.90;;;;;;4964114;28;20471;-83
2023/01/05 04:19:39;;;;;;;16.97;12.23;;;10.50;99.90;;;;;;4963380;28;20985;-82
2023/01/05 04:22:06;;;;;;;19.27;15.47;;;10.50;99.90;;;;;;4965187;28;20466;-83
2023/01/05 04:24:34;;;;;;;26.60;12.07;;;10.50;99.90;;;;;;4963165;28;21024;-84
2023/01/05 04:27:01;;;;;;;19.03;11.30;;;10.60;99.90;;;;;;4963754;28;20456;-82
2023/01/05 04:29:27;;;;;;;22.50;13.23;;;10.60;99.90;;;;;;4963384;28;20451;-85
2023/01/05 04:31:54;;;;;;;22.07;19.50;;;10.60;99.90;;;;;;4964681;28;20462;-82
2023/01/05 04:34:21;;;;;;;68.70;65.30;;;10.50;99.90;;;;;;4963580;28;20490;-81
2023/01/05 04:36:48;;;;;;;177.20;170.30;;;10.20;99.90;;;;;;4964321;28;20946;-82
2023/01/05 04:39:15;;;;;;;152.63;146.03;;;10.00;99.90;;;;;;4963672;29;20954;-82
2023/01/05 04:41:43;;;;;;;184.20;177.63;;;9.90;99.90;;;;;;4963625;29;20463;-81
2023/01/05 04:44:10;;;;;;;223.73;214.57;;;9.90;99.90;;;;;;4963891;28;20482;-80
2023/01/05 04:46:37;;;;;;;358.27;344.80;;;9.90;99.90;;;;;;4963903;28;20479;-82
2023/01/05 04:49:03;;;;;;;393.10;377.53;;;9.90;99.90;;;;;;4963773;28;20467;-81
2023/01/05 04:51:30;;;;;;;319.50;307.27;;;9.90;99.90;;;;;;4963952;28;20467;-83
2023/01/05 04:53:57;;;;;;;365.00;351.97;;;9.90;99.90;;;;;;4967452;28;20453;-82
2023/01/05 04:56:24;;;;;;;339.80;326.03;;;10.00;99.90;;;;;;4963355;28;20467;-82
2023/01/05 04:58:52;;;;;;;332.97;320.13;;;9.90;99.90;;;;;;4963211;28;20459;-82
2023/01/05 05:01:19;;;;;;;338.83;325.23;;;10.00;99.90;;;;;;4962473;28;20951;-82
2023/01/05 05:03:46;;;;;;;363.13;349.13;;;10.00;99.90;;;;;;4964128;28;20484;-82
2023/01/05 05:06:12;;;;;;;301.30;289.90;;;10.00;99.90;;;;;;4962898;29;20479;-82
2023/01/05 05:08:39;;;;;;;355.63;341.60;;;10.00;99.90;;;;;;4963120;29;20467;-83
2023/01/05 05:11:06;;;;;;;401.57;385.40;;;10.10;99.90;;;;;;4963130;29;20455;-83
2023/01/05 05:13:33;;;;;;;302.73;291.57;;;10.00;99.90;;;;;;4964163;28;20452;-83
2023/01/05 05:16:01;;;;;;;341.97;328.93;;;10.20;99.90;;;;;;4963275;28;20482;-83
2023/01/05 05:18:28;;;;;;;326.63;312.80;;;10.10;99.90;;;;;;4965554;28;20462;-83
2023/01/05 05:20:54;;;;;;;276.70;265.63;;;10.10;99.90;;;;;;4976780;28;20836;-83
2023/01/05 05:23:21;;;;;;;282.47;271.17;;;10.20;99.90;;;;;;4963362;28;20479;-85
2023/01/05 05:25:50;;;;;;;292.37;280.90;;;10.20;99.90;;;;;;4973086;28;20475;-85
2023/01/05 05:28:17;;;;;;;253.33;242.50;;;10.20;99.90;;;;;;4982544;28;20451;-83
2023/01/05 05:31:04;;;;;;;290.50;278.90;;;10.20;99.90;;;;;;4969414;28;20456;-83
2023/01/05 05:33:33;;;;;;;274.80;263.70;;;10.20;99.90;;;;;;4959987;28;20519;-83
2023/01/05 05:35:59;;;;;;;291.73;279.53;;;10.20;99.90;;;;;;4963110;28;20476;-83
2023/01/05 05:38:26;;;;;;;226.97;218.70;;;10.20;99.90;;;;;;4962470;28;20951;-83
2023/01/05 05:40:53;;;;;;;190.87;183.77;;;10.30;99.90;;;;;;4962400;29;20459;-85
2023/01/05 05:43:20;;;;;;;155.53;149.23;;;10.40;99.90;;;;;;4971492;28;20477;-83
2023/01/05 05:45:46;;;;;;;139.57;133.47;;;10.40;99.90;;;;;;4980785;28;20477;-83
2023/01/05 05:48:13;;;;;;;126.30;121.03;;;10.40;99.90;;;;;;4981360;28;20458;-83
2023/01/05 05:50:41;;;;;;;124.33;118.73;;;10.40;99.90;;;;;;4980071;28;20459;-83
2023/01/05 05:56:13;;;;;;;109.87;104.60;;;10.40;99.90;;;;;;4923527;29;20492;-83
2023/01/05 05:58:39;;;;;;;134.73;127.57;;;10.40;99.90;;;;;;4946399;28;20456;-83
2023/01/05 06:01:06;;;;;;;133.53;126.93;;;10.40;99.90;;;;;;4961488;28;20448;-83
2023/01/05 06:03:33;;;;;;;109.23;103.03;;;10.50;99.90;;;;;;4959890;28;20486;-83
2023/01/05 06:06:01;;;;;;;109.37;103.60;;;10.50;99.90;;;;;;4959504;28;21013;-83
2023/01/05 06:12:14;;;;;;;87.77;83.07;;;10.50;99.90;;;;;;4915464;28;21006;-83
2023/01/05 06:14:41;;;;;;;89.67;84.27;;;10.60;99.90;;;;;;4974937;28;20558;-83
2023/01/05 06:17:35;;;;;;;97.00;92.27;;;10.60;99.90;;;;;;4976625;28;20459;-83
2023/01/05 06:20:02;;;;;;;106.90;101.97;;;10.60;99.90;;;;;;4939861;29;20464;-83
2023/01/05 06:22:38;;;;;;;97.87;92.50;;;10.60;99.90;;;;;;4952386;28;20460;-84
2023/01/05 06:25:05;;;;;;;91.17;85.60;;;10.60;99.90;;;;;;4961192;28;20475;-83
2023/01/05 06:27:32;;;;;;;79.70;75.10;;;10.60;99.90;;;;;;4962098;28;20543;-82
2023/01/05 06:33:16;;;;;;;73.60;67.83;;;10.60;99.90;;;;;;4874710;29;20476;-83
2023/01/05 06:35:43;;;;;;;71.83;66.90;;;10.60;99.90;;;;;;4962682;28;20470;-83
2023/01/05 06:38:12;;;;;;;66.17;62.17;;;10.60;99.90;;;;;;4969959;28;20464;-83
2023/01/05 06:40:39;;;;;;;76.40;71.57;;;10.60;99.90;;;;;;4963628;28;20455;-82
2023/01/05 06:43:06;;;;;;;83.17;78.87;;;10.60;99.90;;;;;;4969782;28;20455;-83
2023/01/05 06:45:33;;;;;;;78.43;73.83;;;10.50;99.90;;;;;;4968012;28;20494;-84
2023/01/05 06:47:59;;;;;;;68.47;64.70;;;10.50;99.90;;;;;;4971151;28;20455;-84
2023/01/05 06:50:26;;;;;;;74.30;69.77;;;10.60;99.90;;;;;;4977291;28;20462;-83
2023/01/05 06:52:53;;;;;;;80.20;75.80;;;10.60;99.90;;;;;;4971168;28;20455;-83
2023/01/05 06:55:25;;;;;;;69.97;66.30;;;10.60;99.90;;;;;;4962715;28;20471;-84
2023/01/05 06:57:52;;;;;;;59.00;55.17;;;10.60;99.90;;;;;;4960651;29;20471;-83
2023/01/05 07:00:19;;;;;;;48.77;45.37;;;10.60;99.90;;;;;;4961568;28;20456;-82
2023/01/05 07:02:46;;;;;;;57.53;52.80;;;10.70;99.90;;;;;;4960861;28;20451;-81
2023/01/05 07:05:12;;;;;;;46.20;42.53;;;10.60;99.90;;;;;;4961404;28;20488;-81
2023/01/05 07:07:39;;;;;;;45.87;42.90;;;10.70;99.90;;;;;;4960212;28;20464;-82
2023/01/05 07:10:07;;;;;;;38.00;34.97;;;10.60;99.90;;;;;;4977786;28;20466;-82
2023/01/05 07:12:35;;;;;;;41.37;37.63;;;10.70;99.90;;;;;;4978458;28;20455;-82
2023/01/05 07:15:02;;;;;;;38.13;35.17;;;10.70;99.90;;;;;;4964918;28;20472;-83
2023/01/05 07:17:29;;;;;;;35.33;32.03;;;10.70;99.90;;;;;;4960033;28;20488;-81
2023/01/05 07:19:56;;;;;;;34.17;29.93;;;10.70;99.90;;;;;;4975024;28;20450;-81
2023/01/05 07:22:22;;;;;;;34.53;30.27;;;10.70;99.90;;;;;;4980127;28;20458;-81
2023/01/05 07:24:49;;;;;;;40.63;36.40;;;10.70;99.90;;;;;;4978559;28;20565;-83
2023/01/05 07:27:16;;;;;;;39.80;35.87;;;10.60;99.90;;;;;;4978731;28;20459;-80
2023/01/05 07:29:44;;;;;;;41.83;38.53;;;10.60;99.90;;;;;;4973906;28;20457;-81
2023/01/05 07:32:11;;;;;;;35.87;32.90;;;10.60;99.90;;;;;;4978689;28;20685;-82
2023/01/05 07:34:37;;;;;;;35.57;32.43;;;10.70;99.90;;;;;;4978973;28;20477;-83
2023/01/05 07:37:04;;;;;;;29.97;27.00;;;10.70;99.90;;;;;;4979538;28;20455;-83
2023/01/05 07:39:31;;;;;;;27.73;24.37;;;10.60;99.90;;;;;;4979581;28;20477;-82
2023/01/05 07:42:22;;;;;;;24.87;19.97;;;10.60;99.90;;;;;;4980192;28;20461;-82
2023/01/05 07:48:06;;;;;;;32.30;19.83;;;10.70;99.90;;;;;;4938579;29;20797;-82
2023/01/05 07:50:33;;;;;;;22.97;20.50;;;10.70;99.90;;;;;;4940564;29;20452;-82
2023/01/05 07:53:00;;;;;;;28.53;19.00;;;10.70;99.90;;;;;;4939260;29;20455;-83
2023/01/05 07:55:26;;;;;;;39.30;15.80;;;10.80;99.90;;;;;;4940438;29;20481;-79
2023/01/05 07:57:53;;;;;;;26.90;18.67;;;10.70;99.90;;;;;;4940212;29;20456;-82
2023/01/05 08:00:20;;;;;;;32.50;17.97;;;10.80;99.90;;;;;;4940689;29;20735;-81
2023/01/05 08:02:47;;;;;;;19.83;15.00;;;10.80;99.90;;;;;;4940882;29;20993;-82
2023/01/05 08:05:15;;;;;;;31.23;14.87;;;10.80;99.90;;;;;;4940033;29;20499;-82
2023/01/05 08:07:42;;;;;;;33.23;13.87;;;10.80;99.90;;;;;;4940945;29;20986;-82
2023/01/05 08:10:28;;;;;;;18.90;11.90;;;10.80;99.90;;;;;;4940859;29;20467;-84
2023/01/05 08:15:39;;;;;;;25.90;14.60;;;10.80;99.90;;;;;;4940364;29;20468;-82
2023/01/05 08:18:06;;;;;;;36.77;13.90;;;10.90;99.90;;;;;;4940657;29;20460;-82
2023/01/05 08:20:34;;;;;;;31.60;15.40;;;10.80;99.90;;;;;;4940518;29;20449;-82
2023/01/05 08:23:01;;;;;;;26.23;14.23;;;10.80;99.90;;;;;;4940372;29;20487;-82
2023/01/05 08:25:28;;;;;;;24.73;11.83;;;10.70;99.90;;;;;;4939713;29;20492;-83
2023/01/05 08:27:54;;;;;;;31.80;16.60;;;10.80;99.90;;;;;;4940738;29;20460;-83
2023/01/05 08:30:21;;;;;;;28.80;11.03;;;10.80;99.90;;;;;;4940256;29;20467;-82
2023/01/05 08:32:48;;;;;;;27.67;13.33;;;10.80;99.90;;;;;;4940632;29;20984;-82
2023/01/05 08:35:15;;;;;;;23.70;15.07;;;10.80;99.90;;;;;;4940355;29;20999;-82
2023/01/05 08:37:45;;;;;;;22.50;11.80;;;10.80;99.90;;;;;;4943129;29;20457;-82
2023/01/05 08:40:12;;;;;;;32.63;12.30;;;10.90;99.90;;;;;;4943437;29;20453;-83
2023/01/05 08:42:39;;;;;;;22.00;10.00;;;10.90;99.90;;;;;;4944372;29;20994;-82
2023/01/05 08:45:07;;;;;;;24.87;8.93;;;10.90;99.90;;;;;;4943592;29;20494;-83
2023/01/05 08:47:34;;;;;;;32.63;9.97;;;11.00;99.90;;;;;;4944404;29;20465;-82
2023/01/05 08:50:00;;;;;;;24.80;9.53;;;11.10;99.90;;;;;;4943688;29;20457;-83
2023/01/05 08:52:27;;;;;;;25.30;8.90;;;11.00;99.90;;;;;;4943401;29;20465;-82
2023/01/05 08:54:55;;;;;;;26.97;7.33;;;11.10;99.90;;;;;;4943665;29;20473;-82
2023/01/05 08:57:22;;;;;;;24.63;6.57;;;11.20;99.90;;;;;;4944064;29;20978;-83
2023/01/05 08:59:49;;;;;;;30.90;7.70;;;11.20;99.90;;;;;;4943580;29;20491;-83
2023/01/05 09:02:15;;;;;;;29.83;7.63;;;11.20;99.90;;;;;;4943578;29;20468;-82
2023/01/05 09:04:42;;;;;;;32.70;6.67;;;11.30;99.90;;;;;;4943096;29;20853;-83
2023/01/05 09:07:09;;;;;;;22.63;5.77;;;11.30;99.90;;;;;;4943223;29;20561;-82
2023/01/05 09:09:36;;;;;;;19.40;6.10;;;11.30;99.90;;;;;;4943555;29;20457;-83
2023/01/05 09:12:04;;;;;;;39.47;8.47;;;11.30;99.90;;;;;;4943288;29;20461;-82
2023/01/05 09:14:31;;;;;;;20.87;5.80;;;11.30;99.90;;;;;;4942602;29;20452;-83
2023/01/05 09:16:58;;;;;;;25.13;5.67;;;11.40;99.90;;;;;;4943245;29;20456;-83
2023/01/05 09:19:25;;;;;;;17.03;6.67;;;11.40;99.90;;;;;;4943202;29;20457;-82
2023/01/05 09:21:52;;;;;;;33.20;6.90;;;11.30;99.90;;;;;;4942689;29;20457;-82
2023/01/05 09:24:19;;;;;;;25.30;5.43;;;11.30;99.90;;;;;;4943336;29;20453;-83
2023/01/05 09:26:46;;;;;;;21.17;5.57;;;11.30;99.90;;;;;;4943789;29;20460;-83
2023/01/05 09:29:14;;;;;;;46.83;6.00;;;11.40;99.90;;;;;;4943371;29;20461;-83
2023/01/05 09:31:41;;;;;;;20.57;4.83;;;11.40;99.90;;;;;;4943287;29;20463;-82
2023/01/05 09:34:08;;;;;;;20.27;4.33;;;11.40;99.90;;;;;;4942862;29;20589;-83
2023/01/05 09:36:37;;;;;;;25.13;5.73;;;11.40;99.90;;;;;;4943084;29;21007;-82
2023/01/05 09:39:05;;;;;;;37.10;5.17;;;11.50;99.90;;;;;;4942829;29;20558;-83
2023/01/05 09:41:36;;;;;;;25.93;5.93;;;11.50;99.90;;;;;;4943040;29;20461;-82
2023/01/05 09:44:06;;;;;;;31.30;7.03;;;11.50;99.90;;;;;;4942994;29;20460;-83
2023/01/05 09:46:39;;;;;;;27.43;5.77;;;11.50;99.90;;;;;;4942448;29;20465;-83
2023/01/05 09:49:11;;;;;;;28.47;4.83;;;11.60;99.90;;;;;;4942651;29;20465;-83
2023/01/05 09:51:38;;;;;;;19.93;5.30;;;11.50;99.90;;;;;;4942825;29;20449;-83
2023/01/05 09:54:05;;;;;;;26.63;6.33;;;11.50;99.90;;;;;;4943001;29;20463;-84
2023/01/05 09:56:34;;;;;;;15.97;4.40;;;11.50;99.90;;;;;;4941922;29;20473;-83
2023/01/05 09:59:07;;;;;;;29.00;5.80;;;11.60;99.90;;;;;;4942359;29;20457;-85
2023/01/05 10:01:37;;;;;;;17.33;4.53;;;11.70;99.90;;;;;;4942635;29;20485;-83
2023/01/05 10:04:10;;;;;;;18.40;6.00;;;11.70;99.90;;;;;;4942812;29;20479;-83
2023/01/05 10:06:41;;;;;;;25.33;5.57;;;11.70;99.90;;;;;;4942042;29;20489;-83
2023/01/05 10:09:10;;;;;;;31.87;5.40;;;11.90;99.90;;;;;;4942750;29;20464;-83
2023/01/05 10:14:35;;;;;;;40.40;6.10;;;11.90;99.90;;;;;;4942025;29;20440;-83
2023/01/05 10:17:03;;;;;;;29.70;7.10;;;11.90;99.90;;;;;;4942506;29;20463;-83
2023/01/05 10:19:30;;;;;;;33.17;5.33;;;11.90;99.90;;;;;;4942027;29;20460;-83
2023/01/05 10:22:06;;;;;;;33.30;5.17;;;11.90;99.90;;;;;;4942303;29;20528;-82
2023/01/05 10:24:45;;;;;;;19.43;4.20;;;12.00;99.90;;;;;;4942550;29;20456;-83
2023/01/05 10:27:17;;;;;;;20.53;5.13;;;12.00;99.90;;;;;;4941781;29;20460;-83
2023/01/05 10:29:45;;;;;;;39.03;5.90;;;12.00;99.90;;;;;;4941155;29;20456;-80
2023/01/05 10:32:24;;;;;;;21.20;5.40;;;12.00;99.90;;;;;;4941219;29;20551;-84
2023/01/05 10:34:56;;;;;;;15.83;4.33;;;12.00;99.90;;;;;;4941051;29;20482;-82
2023/01/05 10:37:52;;;;;;;19.73;4.87;;;11.90;99.90;;;;;;4942193;29;20460;-82
2023/01/05 10:40:46;;;;;;;27.47;6.10;;;12.00;99.90;;;;;;4941581;29;20500;-82
2023/01/05 10:43:40;;;;;;;20.77;4.40;;;12.00;99.90;;;;;;4941652;28;20464;-83
2023/01/05 10:46:09;;;;;;;18.73;6.83;;;12.10;99.90;;;;;;4941637;29;20862;-82
2023/01/05 10:48:38;;;;;;;28.27;4.47;;;12.00;99.90;;;;;;4941742;29;20468;-83
2023/01/05 10:51:08;;;;;;;26.20;6.17;;;12.10;99.90;;;;;;4942304;29;20465;-80
2023/01/05 10:53:37;;;;;;;19.90;4.20;;;12.10;99.90;;;;;;4941567;29;20488;-82
2023/01/05 10:56:07;;;;;;;31.40;5.80;;;12.10;99.90;;;;;;4941208;29;20856;-83
2023/01/05 10:58:35;;;;;;;26.37;5.77;;;12.10;99.90;;;;;;4942007;29;20468;-82
2023/01/05 11:01:04;;;;;;;23.00;5.70;;;12.20;99.90;;;;;;4941361;29;20854;-82
2023/01/05 11:03:40;;;;;;;26.60;5.10;;;12.30;99.90;;;;;;4941144;29;20479;-85
2023/01/05 11:06:08;;;;;;;30.80;5.47;;;12.30;99.90;;;;;;4941430;29;20489;-83
2023/01/05 11:08:36;;;;;;;19.00;5.93;;;12.30;99.90;;;;;;4941213;29;20461;-82
2023/01/05 11:11:06;;;;;;;26.77;5.43;;;12.20;99.90;;;;;;4940748;29;20484;-82
2023/01/05 11:13:34;;;;;;;15.87;5.33;;;12.10;99.90;;;;;;4941288;29;20467;-82
2023/01/05 11:16:08;;;;;;;12.47;3.40;;;12.00;99.90;;;;;;4940748;29;20984;-82
2023/01/05 11:18:40;;;;;;;16.20;4.80;;;11.80;99.90;;;;;;4941570;29;20464;-82
2023/01/05 11:21:14;;;;;;;16.47;4.30;;;11.80;99.90;;;;;;4941559;29;20459;-82
2023/01/05 11:23:43;;;;;;;20.43;4.90;;;11.80;99.90;;;;;;4940875;29;20457;-83
2023/01/05 11:26:23;;;;;;;13.00;4.50;;;11.90;99.90;;;;;;4940577;29;20480;-82
2023/01/05 11:29:12;;;;;;;15.70;4.43;;;12.00;99.90;;;;;;4941151;29;20848;-83
2023/01/05 11:31:42;;;;;;;17.63;4.90;;;12.10;99.90;;;;;;4940556;28;20496;-83
2023/01/05 11:34:24;;;;;;;21.40;5.43;;;12.00;99.90;;;;;;4941693;29;20456;-82
2023/01/05 11:36:55;;;;;;;17.50;4.50;;;12.10;99.90;;;;;;4941300;29;20467;-83
2023/01/05 11:39:27;;;;;;;23.70;4.90;;;12.10;99.90;;;;;;4941187;29;20485;-82
2023/01/05 11:42:09;;;;;;;23.63;3.67;;;12.10;99.90;;;;;;4941528;29;20547;-82
2023/01/05 11:44:36;;;;;;;26.50;5.20;;;12.20;99.90;;;;;;4940870;29;20476;-82
2023/01/05 11:47:06;;;;;;;14.63;4.20;;;12.10;99.90;;;;;;4941356;29;20487;-85
2023/01/05 11:49:33;;;;;;;23.80;5.30;;;12.00;99.90;;;;;;4941799;29;20467;-85
2023/01/05 11:52:01;;;;;;;26.13;5.30;;;11.90;99.90;;;;;;4940740;29;20466;-83
2023/01/05 11:54:37;;;;;;;17.40;4.93;;;12.00;99.90;;;;;;4941035;29;20461;-83
2023/01/05 11:57:14;;;;;;;24.07;5.50;;;12.10;99.90;;;;;;4940895;29;20452;-83
2023/01/05 11:59:41;;;;;;;18.77;4.03;;;12.30;99.90;;;;;;4940669;29;20831;-83
2023/01/05 12:02:38;;;;;;;23.87;4.63;;;12.70;99.90;;;;;;4941579;29;20468;-85
2023/01/05 12:05:21;;;;;;;17.40;3.90;;;12.90;99.90;;;;;;4940119;28;20480;-82
2023/01/05 12:07:53;;;;;;;21.27;4.63;;;13.00;99.90;;;;;;4941762;29;20457;-85
2023/01/05 12:10:39;;;;;;;26.40;5.60;;;13.10;99.90;;;;;;4941421;29;20863;-85
2023/01/05 12:13:18;;;;;;;26.10;3.67;;;13.10;99.90;;;;;;4944987;29;20461;-84
2023/01/05 12:15:58;;;;;;;14.40;4.30;;;13.20;99.90;;;;;;4944786;29;20485;-83
2023/01/05 12:18:53;;;;;;;24.93;4.80;;;13.10;99.90;;;;;;4944549;29;20457;-83
2023/01/05 12:21:23;;;;;;;21.60;5.37;;;13.20;99.90;;;;;;4944905;29;20976;-83
2023/01/05 12:24:26;;;;;;;18.40;4.57;;;13.20;99.90;;;;;;4945954;29;20467;-85
2023/01/05 12:27:04;;;;;;;19.43;5.17;;;13.00;99.90;;;;;;4944727;29;20560;-83
2023/01/05 12:29:47;;;;;;;18.67;4.13;;;13.20;99.90;;;;;;4944826;29;20457;-83
2023/01/05 12:32:28;;;;;;;22.37;3.80;;;13.00;99.90;;;;;;4944620;29;20468;-82
2023/01/05 12:35:25;;;;;;;26.63;5.00;;;13.30;99.90;;;;;;4944031;29;20900;-83
2023/01/05 12:38:09;;;;;;;16.33;2.90;;;13.80;99.90;;;;;;4944803;29;20462;-83
2023/01/05 12:40:51;;;;;;;18.97;4.10;;;14.50;99.90;;;;;;4944624;29;20458;-83
2023/01/05 12:43:28;;;;;;;22.13;5.07;;;14.40;99.20;;;;;;4944283;29;20463;-84
2023/01/05 12:46:09;;;;;;;18.83;4.33;;;14.40;99.90;;;;;;4944060;29;20857;-84
2023/01/05 12:48:40;;;;;;;14.93;3.97;;;14.10;99.90;;;;;;4944578;29;20453;-83
2023/01/05 12:51:12;;;;;;;18.23;3.60;;;14.10;99.30;;;;;;4943760;29;20834;-85
2023/01/05 12:53:48;;;;;;;22.30;4.23;;;14.20;99.90;;;;;;4944460;29;20462;-83
2023/01/05 12:56:22;;;;;;;16.53;4.10;;;13.90;99.90;;;;;;4944295;29;20479;-83
2023/01/05 12:59:02;;;;;;;19.43;4.07;;;13.60;99.90;;;;;;4943977;29;20453;-82
2023/01/05 13:01:31;;;;;;;23.60;4.17;;;13.30;99.90;;;;;;4944631;29;20527;-83
2023/01/05 13:04:02;;;;;;;14.30;4.13;;;13.10;99.90;;;;;;4944304;29;20468;-82
2023/01/05 13:06:36;;;;;;;25.33;3.93;;;13.10;99.90;;;;;;4943425;29;20493;-82
2023/01/05 13:09:06;;;;;;;19.40;4.20;;;13.10;99.90;;;;;;4943845;29;20457;-83
2023/01/05 13:11:38;;;;;;;26.37;4.37;;;13.00;99.90;;;;;;4943755;29;20964;-83
2023/01/05 13:14:10;;;;;;;15.77;4.23;;;13.10;99.90;;;;;;4943743;29;20450;-83
2023/01/05 13:16:40;;;;;;;18.63;4.53;;;13.00;99.90;;;;;;4943489;29;20471;-83
2023/01/05 13:19:18;;;;;;;17.77;4.57;;;13.10;99.90;;;;;;4943653;29;20457;-83
2023/01/05 13:21:46;;;;;;;21.37;4.30;;;13.20;99.90;;;;;;4943988;29;20463;-84
2023/01/05 13:24:21;;;;;;;18.93;4.17;;;13.20;99.90;;;;;;4943460;29;20463;-83
2023/01/05 13:26:48;;;;;;;18.70;4.20;;;13.20;99.90;;;;;;4943581;29;20486;-83
2023/01/05 13:29:59;;;;;;;26.03;4.90;;;13.10;99.90;;;;;;4943382;29;20468;-83
2023/01/05 13:32:47;;;;;;;16.80;3.90;;;13.00;99.90;;;;;;4939194;29;20461;-83
2023/01/05 13:35:36;;;;;;;20.93;4.10;;;12.90;99.90;;;;;;4942540;29;20867;-86
2023/01/05 13:38:41;;;;;;;11.67;3.23;;;12.70;99.90;;;;;;4944944;29;20457;-81